M I D A S
Marine Information and Data Acquisition System
Tripno 374 of the Zeeleeuw from 2002-12-23 07:53:17 to 2002-12-23 15:56:21
Back to CruiseResearch ActivitiesStationsMapUnderway DataData graphs

EquipmentUnitsComment
TimeDGPSUTC
LatitudeDGPSDM.mWGS84
LongitudeDGPSDM.mWGS84
TemperatureSBE03/SBE38deg celciusITS90
ConductivitySBE21S/mITS90
SalinitySBE21 Practical Salinity Units
ChlorophylAChelsea fluorimeterg/lCalibrated in Aceton
Missing or incorrect values are displayed as -999
Sea surface data collected by the RV Zeeleeuw from 2002-12-23 07:53:17 to 2002-12-23 15:56:21
                                                                                    Next 1000 lines
Time Latitude Longitude Temperature Conductivity Salinity ChlorophylA
2002-12-23 07:53:24 51°13.611 2°56.075 -999 0.009778 0.05461  
2002-12-23 07:53:28 51°13.611 2°56.073 -999 0.009778 0.054609  
2002-12-23 07:53:34 51°13.613 2°56.07 -999 0.009778 0.05461  
2002-12-23 07:53:38 51°13.613 2°56.067 -999 0.009778 0.054609  
2002-12-23 07:53:43 51°13.615 2°56.062 -999 0.009778 0.054609  
2002-12-23 07:53:49 51°13.617 2°56.054 -999 0.009778 0.05461  
2002-12-23 07:53:54 51°13.62 2°56.047 -999 0.009778 0.05461  
2002-12-23 07:53:58 51°13.622 2°56.04 -999 0.009778 0.054609  
2002-12-23 07:54:04 51°13.625 2°56.029 -999 0.009778 0.054609  
2002-12-23 07:54:08 51°13.627 2°56.021 -999 0.009778 0.05461  
2002-12-23 07:54:14 51°13.631 2°56.008 -999 0.009778 0.05461  
2002-12-23 07:54:18 51°13.633 2°55.999 -999 0.009778 0.05461  
2002-12-23 07:54:24 51°13.636 2°55.985 -999 0.009778 0.05461  
2002-12-23 07:54:28 51°13.639 2°55.975 -999 0.009778 0.05461  
2002-12-23 07:54:34 51°13.642 2°55.959 -999 0.009778 0.05461  
2002-12-23 07:54:38 51°13.644 2°55.948 -999 0.009778 0.05461  
2002-12-23 07:54:44 51°13.648 2°55.932 -999 0.009778 0.05461  
2002-12-23 07:54:49 51°13.651 2°55.918 -999 0.009778 0.05461  
2002-12-23 07:54:53 51°13.653 2°55.907 -999 0.009778 0.05461  
2002-12-23 07:54:58 51°13.656 2°55.893 -999 0.009778 0.05461  
2002-12-23 07:55:04 51°13.659 2°55.877 -999 0.009778 0.05461  
2002-12-23 07:55:09 51°13.662 2°55.864 -999 0.009778 0.05461  
2002-12-23 07:55:14 51°13.664 2°55.852 -999 0.009778 0.05461  
2002-12-23 07:55:18 51°13.665 2°55.843 -999 0.009778 0.05461  
2002-12-23 07:55:23 51°13.667 2°55.832 -999 0.009778 0.05461  
2002-12-23 07:55:28 51°13.669 2°55.822 -999 0.009778 0.05461  
2002-12-23 07:55:34 51°13.67 2°55.809 -999 0.009778 0.054611  
2002-12-23 07:55:38 51°13.671 2°55.802 -999 0.009778 0.05461  
2002-12-23 07:55:43 51°13.671 2°55.793 -999 0.009778 0.05461  
2002-12-23 07:55:48 51°13.672 2°55.786 -999 0.009778 0.05461  
2002-12-23 07:55:54 51°13.672 2°55.78 -999 0.009778 0.05461  
2002-12-23 07:55:58 51°13.672 2°55.777 -999 0.009778 0.05461  
2002-12-23 07:56:03 51°13.672 2°55.774 -999 0.009778 0.05461  
2002-12-23 07:56:08 51°13.672 2°55.772 -999 0.009778 0.054611  
2002-12-23 07:56:14 51°13.673 2°55.77 -999 0.009778 0.054611  
2002-12-23 07:56:18 51°13.674 2°55.77 -999 0.009778 0.05461  
2002-12-23 07:56:22 51°13.674 2°55.769 -999 0.009778 0.05461  
2002-12-23 07:56:28 51°13.676 2°55.769 -999 0.009778 0.05461  
2002-12-23 07:56:34 51°13.678 2°55.77 -999 0.009778 0.054611  
2002-12-23 07:56:38 51°13.679 2°55.77 -999 0.009778 0.05461  
2002-12-23 07:56:42 51°13.681 2°55.77 -999 0.009778 0.054611  
2002-12-23 07:56:48 51°13.684 2°55.77 -999 0.009778 0.054611  
2002-12-23 07:56:53 51°13.687 2°55.769 -999 0.009778 0.054611  
2002-12-23 07:56:58 51°13.69 2°55.768 -999 0.009778 0.054611  
2002-12-23 07:57:04 51°13.695 2°55.766 -999 0.009778 0.05461  
2002-12-23 07:57:08 51°13.698 2°55.764 -999 0.009778 0.054611  
2002-12-23 07:57:14 51°13.703 2°55.759 -999 0.009778 0.054611  
2002-12-23 07:57:18 51°13.707 2°55.755 -999 0.009778 0.05461  
2002-12-23 07:57:24 51°13.713 2°55.748 -999 0.009778 0.05461  
2002-12-23 07:57:26 51°13.715 2°55.746 -999 0.009778 0.054609  
2002-12-23 07:57:34 51°13.725 2°55.736 -999 0.009778 0.054608  
2002-12-23 07:57:38 51°13.73 2°55.73 -999 0.009778 0.054609  
2002-12-23 07:57:43 51°13.736 2°55.723 -999 0.009778 0.05461  
2002-12-23 07:57:49 51°13.745 2°55.713 -999 0.009778 0.05461  
2002-12-23 07:57:54 51°13.752 2°55.705 -999 0.009778 0.05461  
2002-12-23 07:57:58 51°13.758 2°55.699 -999 0.009778 0.05461  
2002-12-23 07:58:02 51°13.765 2°55.692 -999 0.009778 0.05461  
2002-12-23 07:58:08 51°13.775 2°55.683 -999 0.009778 0.054609  
2002-12-23 07:58:13 51°13.784 2°55.675 -999 0.009778 0.05461  
2002-12-23 07:58:18 51°13.793 2°55.667 -999 0.009778 0.05461  
2002-12-23 07:58:22 51°13.801 2°55.66 -999 0.009778 0.05461  
2002-12-23 07:58:28 51°13.812 2°55.65 -999 0.009778 0.05461  
2002-12-23 07:58:34 51°13.824 2°55.641 -999 0.009778 0.05461  
2002-12-23 07:58:38 51°13.831 2°55.634 -999 0.009778 0.05461  
2002-12-23 07:58:44 51°13.843 2°55.624 -999 0.009778 0.05461  
2002-12-23 07:58:48 51°13.851 2°55.618 -999 0.009778 0.05461  
2002-12-23 07:58:54 51°13.864 2°55.608 -999 0.009778 0.05461  
2002-12-23 07:58:58 51°13.872 2°55.602 -999 0.009778 0.05461  
2002-12-23 07:59:03 51°13.883 2°55.594 -999 0.009778 0.05461  
2002-12-23 07:59:08 51°13.893 2°55.587 13.486062 0.009778 0.054618  
2002-12-23 07:59:13 51°13.904 2°55.579 9.636264 0.009778 0.054716  
2002-12-23 07:59:18 51°13.915 2°55.571 9.636264 0.009778 0.054716  
2002-12-23 07:59:22 51°13.923 2°55.565 8.111314 0.009882 0.055265  
2002-12-23 07:59:28 51°13.936 2°55.556 7.432942 2.809161 20.574716  
2002-12-23 07:59:34 51°13.949 2°55.546 7.542119 2.463262 18.489216  
2002-12-23 07:59:38 51°13.957 2°55.54 8.019837 2.415347 19.418552  
2002-12-23 07:59:42 51°13.966 2°55.534 7.368246 2.231446 18.846215  
2002-12-23 07:59:48 51°13.979 2°55.525 7.11253 2.018539 17.642275  
2002-12-23 07:59:54 51°13.992 2°55.516 7.11253 2.018539 17.642275  
2002-12-23 07:59:58 51°14.001 2°55.509 7.11047 1.875026 16.801328  
2002-12-23 08:00:03 51°14.012 2°55.501 7.443581 1.817514 16.548417  
2002-12-23 08:00:08 51°14.024 2°55.492 7.161804 1.800411 16.605766  
2002-12-23 08:00:13 51°14.036 2°55.483 6.943334 1.791702 16.647032  
2002-12-23 08:00:18 51°14.049 2°55.473 7.111843 1.787296 16.70834  
2002-12-23 08:00:22 51°14.059 2°55.466 7.111843 1.787296 16.70834  
2002-12-23 08:00:28 51°14.075 2°55.453 6.996179 1.784988 16.753753  
2002-12-23 08:00:34 51°14.092 2°55.44 7.280055 1.7916 16.868182  
2002-12-23 08:00:38 51°14.103 2°55.431 6.731712 1.829066 17.280353  
2002-12-23 08:00:42 51°14.115 2°55.422 7.059339 1.844075 17.45591  
2002-12-23 08:00:48 51°14.132 2°55.408 6.848349 1.883856 17.915724  
2002-12-23 08:00:54 51°14.149 2°55.393 6.848349 1.883856 17.915724  
2002-12-23 08:00:58 51°14.161 2°55.382 6.168598 1.891939 18.014977  
2002-12-23 08:01:04 51°14.178 2°55.365 6.688226 1.899078 18.113798  
2002-12-23 08:01:08 51°14.189 2°55.353 7.123908 1.906111 18.202137  
2002-12-23 08:01:14 51°14.206 2°55.335 6.387607 1.893409 18.07915  
2002-12-23 08:01:18 51°14.216 2°55.322 6.988366 1.881338 17.968166  
2002-12-23 08:01:23 51°14.229 2°55.306 6.988366 1.881338 17.968166  
2002-12-23 08:01:28 51°14.242 2°55.288 7.124545 1.866853 17.82835  
2002-12-23 08:01:34 51°14.256 2°55.266 6.759387 1.849429 17.656588  
2002-12-23 08:01:38 51°14.265 2°55.251 7.067095 1.820987 17.369021  
2002-12-23 08:01:43 51°14.277 2°55.231 7.736752 1.783522 16.978636  
2002-12-23 08:01:48 51°14.289 2°55.21 7.39672 1.726965 16.385753  
2002-12-23 08:01:53 51°14.299 2°55.188 7.39672 1.726965 16.385753  
2002-12-23 08:01:58 51°14.311 2°55.166 6.76994 1.656573 15.654937  
2002-12-23 08:02:02 51°14.32 2°55.148 6.90703 1.590078 14.971183  
2002-12-23 08:02:08 51°14.334 2°55.12 6.84096 1.523807 14.294349  
2002-12-23 08:02:14 51°14.348 2°55.092 6.789662 1.486065 13.911014  
2002-12-23 08:02:18 51°14.358 2°55.074 7.042892 1.478726 13.836176  
2002-12-23 08:02:24 51°14.373 2°55.048 7.042892 1.478726 13.836176  
2002-12-23 08:02:28 51°14.384 2°55.031 7.584297 1.472961 13.786087  
2002-12-23 08:02:34 51°14.401 2°55.005 6.687041 1.488057 13.942221  
2002-12-23 08:02:38 51°14.412 2°54.988 6.949727 1.524751 14.320692  
2002-12-23 08:02:43 51°14.426 2°54.967 7.092269 1.540688 14.48984  
2002-12-23 08:02:48 51°14.44 2°54.947 6.239199 1.539535 14.480279  
2002-12-23 08:02:54 51°14.457 2°54.923 6.239199 1.539535 14.480279  
2002-12-23 08:02:58 51°14.469 2°54.908 6.893841 1.548447 14.574253  
2002-12-23 08:03:02 51°14.482 2°54.893 6.856179 1.559038 14.689593  
2002-12-23 08:03:08 51°14.5 2°54.871 6.5892 1.587037 14.981966  
2002-12-23 08:03:14 51°14.519 2°54.852 6.5024 1.648497 15.629999  
2002-12-23 08:03:18 51°14.532 2°54.84 6.714489 1.717838 16.364384  
2002-12-23 08:03:23 51°14.549 2°54.826 6.714489 1.717838 16.364384  
2002-12-23 08:03:28 51°14.567 2°54.813 7.088884 1.942332 18.728622  
2002-12-23 08:03:34 51°14.588 2°54.801 6.567288 2.127056 20.702708  
2002-12-23 08:03:38 51°14.602 2°54.794 6.307138 2.311663 22.69861  
2002-12-23 08:03:42 51°14.616 2°54.788 7.005023 2.432225 24.007713  
2002-12-23 08:03:48 51°14.637 2°54.779 6.664373 2.527164 25.047571  
2002-12-23 08:03:52 51°14.651 2°54.774 6.664373 2.527164 25.047571  
2002-12-23 08:03:58 51°14.672 2°54.768 6.714094 2.641057 26.285141  
2002-12-23 08:04:03 51°14.69 2°54.763 7.199188 2.692071 26.83651  
2002-12-23 08:04:08 51°14.707 2°54.759 6.489226 2.752664 27.500655  
2002-12-23 08:04:14 51°14.729 2°54.754 7.164598 2.794221 27.961119  
2002-12-23 08:04:18 51°14.743 2°54.751 6.502103 2.834414 28.411189  
2002-12-23 08:04:23 51°14.761 2°54.749 6.502103 2.834414 28.411189  
2002-12-23 08:04:28 51°14.778 2°54.747 6.509036 2.857143 28.673468  
2002-12-23 08:04:34 51°14.8 2°54.744 6.608187 2.882083 28.965939  
2002-12-23 08:04:38 51°14.814 2°54.742 5.923947 2.900394 29.186236  
2002-12-23 08:04:42 51°14.828 2°54.74 6.403084 2.93607 29.5887  
2002-12-23 08:04:48 51°14.849 2°54.736 7.245851 2.954488 29.805906  
2002-12-23 08:04:53 51°14.866 2°54.73 7.245851 2.954488 29.805906  
2002-12-23 08:04:58 51°14.884 2°54.722 6.26863 2.995958 30.275998  
2002-12-23 08:05:02 51°14.897 2°54.715 6.345077 3.011431 30.455827  
2002-12-23 08:05:08 51°14.917 2°54.701 6.25158 3.034904 30.721408  
2002-12-23 08:05:14 51°14.937 2°54.687 6.854308 3.050905 30.910022  
2002-12-23 08:05:18 51°14.95 2°54.678 6.40224 3.062274 31.046175  
2002-12-23 08:05:24 51°14.97 2°54.666 6.40224 3.062274 31.046175  
2002-12-23 08:05:28 51°14.983 2°54.66 6.200301 3.071959 31.16519  
2002-12-23 08:05:33 51°15 2°54.651 6.03609 3.07996 31.256565  
2002-12-23 08:05:38 51°15.018 2°54.643 6.441163 3.08196 31.288691  
2002-12-23 08:05:43 51°15.034 2°54.636 6.199157 3.082802 31.301375  
2002-12-23 08:05:48 51°15.051 2°54.631 6.611054 3.08175 31.300049  
2002-12-23 08:05:53 51°15.068 2°54.627 6.611054 3.08175 31.300049  
2002-12-23 08:05:58 51°15.085 2°54.624 6.359373 3.086803 31.360857  
2002-12-23 08:06:04 51°15.105 2°54.623 6.81613 3.083961 31.333773  
2002-12-23 08:06:08 51°15.119 2°54.623 6.366916 3.079855 31.288454  
2002-12-23 08:06:14 51°15.138 2°54.624 7.054774 3.07975 31.288887  
2002-12-23 08:06:18 51°15.152 2°54.626 6.696077 3.076276 31.247442  
2002-12-23 08:06:23 51°15.168 2°54.629 6.696077 3.076276 31.247442  
2002-12-23 08:06:28 51°15.185 2°54.633 6.375997 3.086171 31.361043  
2002-12-23 08:06:34 51°15.204 2°54.639 6.181789 3.088066 31.380719  
2002-12-23 08:06:38 51°15.217 2°54.643 6.346219 3.070275 31.182469  
2002-12-23 08:06:42 51°15.23 2°54.646 6.296011 3.098594 31.499063  
2002-12-23 08:06:48 51°15.25 2°54.648 6.29447 3.094488 31.45209  
2002-12-23 08:06:53 51°15.267 2°54.648 6.29447 3.094488 31.45209  
2002-12-23 08:06:58 51°15.284 2°54.644 6.330977 3.09312 31.438328  
2002-12-23 08:07:04 51°15.304 2°54.636 6.618914 3.10091 31.520226  
2002-12-23 08:07:09 51°15.321 2°54.627 6.373963 3.105121 31.56595  
2002-12-23 08:07:12 51°15.331 2°54.622 6.087053 3.105858 31.576682  
2002-12-23 08:07:18 51°15.35 2°54.61 6.119893 3.098068 31.493957  
2002-12-23 08:07:24 51°15.369 2°54.597 6.119893 3.098068 31.493957  
2002-12-23 08:07:27 51°15.379 2°54.591 6.080523 3.109648 31.626656  
2002-12-23 08:07:34 51°15.403 2°54.577 6.812877 3.105332 31.581357  
2002-12-23 08:07:38 51°15.416 2°54.569 6.227512 3.108069 31.612153  
2002-12-23 08:07:43 51°15.433 2°54.561 6.250784 3.105016 31.58188  
2002-12-23 08:07:48 51°15.45 2°54.555 6.533293 3.103753 31.569297  
2002-12-23 08:07:53 51°15.468 2°54.549 6.533293 3.103753 31.569297  
2002-12-23 08:07:58 51°15.485 2°54.545 6.891233 3.096489 31.490019  
2002-12-23 08:08:02 51°15.499 2°54.542 6.682696 3.099436 31.523993  
2002-12-23 08:08:08 51°15.52 2°54.538 6.313844 3.098805 31.516886  
2002-12-23 08:08:14 51°15.542 2°54.535 6.432835 3.085961 31.370822  
2002-12-23 08:08:18 51°15.556 2°54.532 6.058086 3.084171 31.349894  
2002-12-23 08:08:24 51°15.577 2°54.527 6.058086 3.084171 31.349894  
2002-12-23 08:08:28 51°15.591 2°54.522 5.970506 3.086382 31.373936  
2002-12-23 08:08:34 51°15.612 2°54.513 6.087502 3.091751 31.441609  
2002-12-23 08:08:38 51°15.626 2°54.507 6.11785 3.087224 31.394753  
2002-12-23 08:08:43 51°15.644 2°54.499 6.723027 3.076697 31.283659  
2002-12-23 08:08:48 51°15.661 2°54.49 6.235967 3.096594 31.511547  
2002-12-23 08:08:54 51°15.681 2°54.479 6.235967 3.096594 31.511547  
2002-12-23 08:08:58 51°15.695 2°54.472 7.12072 3.090593 31.451329  
2002-12-23 08:09:04 51°15.715 2°54.463 6.880896 3.094805 31.501986  
2002-12-23 08:09:09 51°15.733 2°54.459 6.023667 3.076803 31.306681  
2002-12-23 08:09:14 51°15.75 2°54.456 6.183431 3.090067 31.465737  
2002-12-23 08:09:18 51°15.764 2°54.455 6.589991 3.078908 31.344149  
2002-12-23 08:09:24 51°15.785 2°54.455 6.589991 3.078908 31.344149  
2002-12-23 08:09:28 51°15.798 2°54.456 5.978246 3.074171 31.295682  
2002-12-23 08:09:34 51°15.818 2°54.458 6.225025 3.080066 31.362053  
2002-12-23 08:09:38 51°15.832 2°54.459 6.271165 3.084909 31.4174  
2002-12-23 08:09:42 51°15.845 2°54.46 6.150176 3.090067 31.477135  
2002-12-23 08:09:48 51°15.865 2°54.463 6.427828 3.079119 31.356253  
2002-12-23 08:09:54 51°15.885 2°54.465 6.427828 3.079119 31.356253  
2002-12-23 08:09:58 51°15.898 2°54.466 6.874644 3.092068 31.503747  
2002-12-23 08:10:03 51°15.914 2°54.467 6.300531 3.089436 31.478164  
2002-12-23 08:10:07 51°15.927 2°54.468 6.261373 3.089646 31.479722  
2002-12-23 08:10:14 51°15.95 2°54.47 6.264306 3.089646 31.478092  
2002-12-23 08:10:18 51°15.963 2°54.47 6.183282 3.071013 31.270652  
2002-12-23 08:10:24 51°15.983 2°54.471 6.183282 3.071013 31.270652  
2002-12-23 08:10:28 51°15.996 2°54.471 6.346318 3.092699 31.516575  
2002-12-23 08:10:34 51°16.015 2°54.472 6.019227 3.089541 31.483425  
2002-12-23 08:10:38 51°16.026 2°54.472 6.434323 3.092489 31.519096  
2002-12-23 08:10:43 51°16.041 2°54.472 6.110028 3.089646 31.487871  
2002-12-23 08:10:48 51°16.055 2°54.473 6.350587 3.092384 31.518726  
2002-12-23 08:10:54 51°16.07 2°54.475 6.350587 3.092384 31.518726  
2002-12-23 08:10:58 51°16.079 2°54.476 6.025613 3.092173 31.515536  
2002-12-23 08:11:02 51°16.088 2°54.478 6.395643 3.084277 31.424921  
2002-12-23 08:11:08 51°16.101 2°54.481 6.395395 3.074592 31.315006  
2002-12-23 08:11:14 51°16.113 2°54.484 5.827323 3.09491 31.540678  
2002-12-23 08:11:18 51°16.121 2°54.485 6.441064 3.0947 31.538304  
2002-12-23 08:11:24 51°16.132 2°54.487 6.441064 3.0947 31.538304  
2002-12-23 08:11:28 51°16.139 2°54.487 6.477883 3.097437 31.569977  
2002-12-23 08:11:34 51°16.149 2°54.485 6.11521 3.09691 31.563226  
2002-12-23 08:11:38 51°16.155 2°54.482 6.239298 3.096595 31.559666  
2002-12-23 08:11:44 51°16.163 2°54.476 5.988731 3.099332 31.590524  
2002-12-23 08:11:48 51°16.169 2°54.471 6.114213 3.097332 31.565522  
2002-12-23 08:11:54 51°16.175 2°54.462 6.114213 3.097332 31.565522  
2002-12-23 08:11:58 51°16.179 2°54.456 6.443196 3.097332 31.566339  
2002-12-23 08:12:02 51°16.183 2°54.448 6.161578 3.096805 31.561222  
2002-12-23 08:12:08 51°16.188 2°54.438 5.955573 3.100595 31.60395  
2002-12-23 08:12:14 51°16.192 2°54.426 6.570504 3.091752 31.506711  
2002-12-23 08:12:18 51°16.194 2°54.418 6.327253 3.100911 31.609147  
2002-12-23 08:12:24 51°16.196 2°54.405 6.327253 3.100911 31.609147  
2002-12-23 08:12:28 51°16.198 2°54.396 6.354012 3.101016 31.611152  
2002-12-23 08:12:34 51°16.2 2°54.383 6.165412 3.100069 31.599651  
2002-12-23 08:12:38 51°16.2 2°54.374 6.288608 3.100279 31.600389  
2002-12-23 08:12:42 51°16.202 2°54.365 6.287415 3.097121 31.563149  
2002-12-23 08:12:48 51°16.204 2°54.351 6.369993 3.0987 31.580133  
2002-12-23 08:12:54 51°16.206 2°54.34 6.369993 3.0987 31.580133  
2002-12-23 08:12:58 51°16.207 2°54.332 6.125473 3.097647 31.566631  
2002-12-23 08:13:03 51°16.208 2°54.324 6.170191 3.099227 31.582797  
2002-12-23 08:13:08 51°16.209 2°54.318 6.374062 3.098068 31.569744  
2002-12-23 08:13:13 51°16.21 2°54.313 5.96756 3.095963 31.545197  
2002-12-23 08:13:18 51°16.21 2°54.309 6.417961 3.091331 31.493813  
2002-12-23 08:13:23 51°16.209 2°54.306 6.417961 3.091331 31.493813  
2002-12-23 08:13:27 51°16.208 2°54.304 6.339417 3.094489 31.528587  
2002-12-23 08:13:34 51°16.207 2°54.3 6.380364 3.096279 31.54794  
2002-12-23 08:13:38 51°16.206 2°54.298 6.172282 3.094068 31.52221  
2002-12-23 08:13:43 51°16.205 2°54.296 5.890256 3.098911 31.575152  
2002-12-23 08:13:48 51°16.204 2°54.293 6.17721 3.095436 31.536  
2002-12-23 08:13:54 51°16.205 2°54.288 6.17721 3.095436 31.536  
2002-12-23 08:13:58 51°16.207 2°54.285 6.058286 3.100384 31.588494  
2002-12-23 08:14:03 51°16.21 2°54.279 6.013338 3.100174 31.586939  
2002-12-23 08:14:08 51°16.214 2°54.274 6.382795 3.098384 31.567586  
2002-12-23 08:14:13 51°16.22 2°54.27 6.020324 3.095647 31.537557  
2002-12-23 08:14:18 51°16.225 2°54.267 6.018678 3.087014 31.437861  
2002-12-23 08:14:22 51°16.23 2°54.266 6.018678 3.087014 31.437861  
2002-12-23 08:14:28 51°16.236 2°54.264 6.386367 3.0967 31.546971  
2002-12-23 08:14:34 51°16.242 2°54.263 6.391477 3.103332 31.6209  
2002-12-23 08:14:38 51°16.245 2°54.263 6.471938 3.102279 31.608216  
2002-12-23 08:14:43 51°16.25 2°54.263 6.152019 3.103438 31.619633  
2002-12-23 08:14:48 51°16.254 2°54.263 6.307834 3.087225 31.436167  
2002-12-23 08:14:54 51°16.259 2°54.264 6.307834 3.087225 31.436167  
2002-12-23 08:14:58 51°16.261 2°54.264 6.061228 3.105227 31.638986  
2002-12-23 08:15:03 51°16.262 2°54.263 6.221842 3.102069 31.602573  
2002-12-23 08:15:08 51°16.263 2°54.262 6.382299 3.101964 31.599752  
2002-12-23 08:15:14 51°16.264 2°54.259 6.096025 3.104069 31.621026  
2002-12-23 08:15:18 51°16.264 2°54.258 6.544627 3.105017 31.632522  
2002-12-23 08:15:22 51°16.264 2°54.256 6.544627 3.105017 31.632522  
2002-12-23 08:15:28 51°16.264 2°54.254 6.425795 3.104385 31.625403  
2002-12-23 08:15:34 51°16.264 2°54.252 6.670053 3.107649 31.663823  
2002-12-23 08:15:38 51°16.265 2°54.251 6.178504 3.104806 31.635058  
2002-12-23 08:15:43 51°16.265 2°54.249 6.944908 3.105333 31.643447  
2002-12-23 08:15:48 51°16.265 2°54.248 6.177707 3.10449 31.634772  
2002-12-23 08:15:54 51°16.266 2°54.246 6.177707 3.10449 31.634772  
2002-12-23 08:15:58 51°16.266 2°54.245 6.093782 3.103964 31.628838  
2002-12-23 08:16:02 51°16.266 2°54.244 6.46292 3.102069 31.607479  
2002-12-23 08:16:08 51°16.266 2°54.242 6.056889 3.103753 31.627283  
2002-12-23 08:16:14 51°16.267 2°54.241 6.914214 3.104385 31.63604  
2002-12-23 08:16:18 51°16.267 2°54.24 6.471096 3.103227 31.623804  
2002-12-23 08:16:23 51°16.267 2°54.239 6.471096 3.103227 31.623804  
2002-12-23 08:16:28 51°16.268 2°54.238 6.54824 3.105859 31.653475  
2002-12-23 08:16:34 51°16.268 2°54.238 6.222339 3.104806 31.643244  
2002-12-23 08:16:38 51°16.269 2°54.237 6.625636 3.105754 31.653107  
2002-12-23 08:16:44 51°16.269 2°54.236 6.261522 3.106701 31.662971  
2002-12-23 08:16:48 51°16.269 2°54.236 6.225722 3.107859 31.673569  
2002-12-23 08:16:53 51°16.269 2°54.236 6.225722 3.107859 31.673569  
2002-12-23 08:16:58 51°16.269 2°54.235 6.218559 3.105227 31.643079  
2002-12-23 08:17:02 51°16.27 2°54.235 6.51161 3.107859 31.671111  
2002-12-23 08:17:06 51°16.27 2°54.235 5.93579 3.107649 31.670376  
2002-12-23 08:17:14 51°16.27 2°54.234 6.507501 3.107228 31.667267  
2002-12-23 08:17:18 51°16.271 2°54.234 6.409134 3.108596 31.681878  
2002-12-23 08:17:24 51°16.27 2°54.234 6.409134 3.108596 31.681878  
2002-12-23 08:17:29 51°16.27 2°54.234 7.112922 3.108596 31.682698  
2002-12-23 08:17:34 51°16.27 2°54.233 5.730651 3.108386 31.679504  
2002-12-23 08:17:38 51°16.27 2°54.233 6.42054 3.103438 31.623723  
2002-12-23 08:17:42 51°16.271 2°54.233 6.669559 3.099648 31.581823  
2002-12-23 08:17:48 51°16.271 2°54.232 6.503935 3.107859 31.675209  
2002-12-23 08:17:54 51°16.271 2°54.232 6.503935 3.107859 31.675209  
2002-12-23 08:17:58 51°16.27 2°54.231 6.2976 3.10628 31.657404  
2002-12-23 08:18:02 51°16.27 2°54.231 7.142589 3.105964 31.654662  
2002-12-23 08:18:08 51°16.271 2°54.231 6.94599 3.101016 31.599701  
2002-12-23 08:18:14 51°16.271 2°54.23 6.532551 3.100069 31.589839  
2002-12-23 08:18:19 51°16.271 2°54.23 6.545963 3.107859 31.677667  
2002-12-23 08:18:22 51°16.271 2°54.229 6.545963 3.107859 31.677667  
2002-12-23 08:18:28 51°16.27 2°54.229 6.742418 3.10607 31.659126  
2002-12-23 08:18:34 51°16.27 2°54.228 6.454298 3.105438 31.652004  
2002-12-23 08:18:38 51°16.27 2°54.228 6.817805 3.103754 31.636287  
2002-12-23 08:18:44 51°16.27 2°54.227 6.210799 3.105017 31.651351  
2002-12-23 08:18:48 51°16.27 2°54.227 6.496557 3.099121 31.584063  
2002-12-23 08:18:54 51°16.269 2°54.226 6.496557 3.099121 31.584063  
2002-12-23 08:18:58 51°16.269 2°54.226 6.049907 3.101122 31.606612  
2002-12-23 08:19:04 51°16.269 2°54.225 5.965562 3.100595 31.601496  
2002-12-23 08:19:08 51°16.268 2°54.225 5.961767 3.105122 31.654996  
2002-12-23 08:19:14 51°16.268 2°54.225 6.333906 3.104385 31.647504  
2002-12-23 08:19:18 51°16.268 2°54.225 6.417416 3.104701 31.652705  
2002-12-23 08:19:23 51°16.268 2°54.224 6.417416 3.104701 31.652705  
2002-12-23 08:19:28 51°16.267 2°54.224 6.211346 3.10428 31.646317  
2002-12-23 08:19:34 51°16.267 2°54.224 6.208112 3.103859 31.641568  
2002-12-23 08:19:38 51°16.267 2°54.224 6.007898 3.098595 31.583851  
2002-12-23 08:19:43 51°16.266 2°54.223 6.210301 3.104596 31.653156  
2002-12-23 08:19:48 51°16.266 2°54.223 6.416573 3.103648 31.64247  
2002-12-23 08:19:54 51°16.266 2°54.223 6.416573 3.103648 31.64247  
2002-12-23 08:19:58 51°16.265 2°54.223 6.248746 3.091436 31.503967  
2002-12-23 08:20:02 51°16.265 2°54.223 6.658396 3.101964 31.623474  
2002-12-23 08:20:08 51°16.265 2°54.222 6.533986 3.102701 31.630966  
2002-12-23 08:20:14 51°16.264 2°54.222 6.532848 3.102806 31.632153  
2002-12-23 08:20:18 51°16.264 2°54.222 6.493337 3.102911 31.63334  
2002-12-23 08:20:23 51°16.263 2°54.222 6.493337 3.102911 31.63334  
2002-12-23 08:20:28 51°16.263 2°54.222 6.655531 3.0987 31.586673  
2002-12-23 08:20:33 51°16.262 2°54.222 6.289204 3.104596 31.653976  
2002-12-23 08:20:38 51°16.262 2°54.222 6.574857 3.101964 31.62593  
2002-12-23 08:20:43 51°16.262 2°54.222 6.166955 3.098279 31.584377  
2002-12-23 08:20:49 51°16.261 2°54.222 6.410374 3.088804 31.476749  
2002-12-23 08:20:54 51°16.261 2°54.222 6.410374 3.088804 31.476749  
2002-12-23 08:20:58 51°16.26 2°54.222 6.491406 3.096595 31.565385  
2002-12-23 08:21:04 51°16.26 2°54.221 6.777583 3.101227 31.6168  
2002-12-23 08:21:08 51°16.259 2°54.221 6.570652 3.103017 31.637803  
2002-12-23 08:21:14 51°16.258 2°54.221 6.410424 3.103333 31.643004  
2002-12-23 08:21:18 51°16.258 2°54.221 6.33202 3.103122 31.640629  
2002-12-23 08:21:24 51°16.257 2°54.221 6.33202 3.103122 31.640629  
2002-12-23 08:21:28 51°16.257 2°54.221 6.369497 3.099964 31.60419  
2002-12-23 08:21:34 51°16.256 2°54.22 6.205326 3.104912 31.660816  
2002-12-23 08:21:38 51°16.255 2°54.22 6.531165 3.101016 31.616881  
2002-12-23 08:21:44 51°16.255 2°54.22 6.613477 3.104912 31.661636  
2002-12-23 08:21:48 51°16.255 2°54.22 6.208112 3.104491 31.655247  
2002-12-23 08:21:54 51°16.254 2°54.22 6.208112 3.104491 31.655247  
2002-12-23 08:21:58 51°16.253 2°54.22 6.773392 3.105333 31.666387  
2002-12-23 08:22:04 51°16.252 2°54.22 6.853668 3.104175 31.654143  
2002-12-23 08:22:08 51°16.252 2°54.22 6.167154 3.105017 31.664463  
2002-12-23 08:22:14 51°16.251 2°54.22 7.098647 3.105017 31.663644  
2002-12-23 08:22:18 51°16.251 2°54.221 6.205127 3.098279 31.588466  
2002-12-23 08:22:24 51°16.251 2°54.221 6.205127 3.098279 31.588466  
2002-12-23 08:22:29 51°16.25 2°54.221 6.246409 3.099332 31.601158  
2002-12-23 08:22:34 51°16.25 2°54.221 6.208262 3.104491 31.660165  
2002-12-23 08:22:38 51°16.249 2°54.221 6.490316 3.105333 31.668846  
2002-12-23 08:22:42 51°16.249 2°54.221 6.327451 3.104596 31.660533  
2002-12-23 08:22:48 51°16.248 2°54.221 6.613575 3.103017 31.642718  
2002-12-23 08:22:54 51°16.247 2°54.221 6.613575 3.103017 31.642718  
2002-12-23 08:22:58 51°16.247 2°54.22 6.371134 3.102911 31.641531  
2002-12-23 08:23:04 51°16.246 2°54.22 6.329984 3.101753 31.627649  
2002-12-23 08:23:08 51°16.245 2°54.22 6.369993 3.104069 31.652955  
2002-12-23 08:23:14 51°16.245 2°54.219 7.015094 3.102911 31.64235  
2002-12-23 08:23:18 51°16.244 2°54.219 6.205625 3.103543 31.649476  
2002-12-23 08:23:22 51°16.244 2°54.219 6.205625 3.103543 31.649476  
2002-12-23 08:23:28 51°16.243 2°54.219 6.532353 3.103227 31.645913  
2002-12-23 08:23:34 51°16.242 2°54.219 6.733488 3.103543 31.648656  
2002-12-23 08:23:38 51°16.242 2°54.219 6.289104 3.10049 31.611763  
2002-12-23 08:23:44 51°16.242 2°54.219 6.374062 3.101753 31.628468  
2002-12-23 08:23:48 51°16.241 2°54.219 6.087053 3.101122 31.622162  
2002-12-23 08:23:54 51°16.24 2°54.219 6.087053 3.101122 31.622162  
2002-12-23 08:23:58 51°16.24 2°54.218 6.044171 3.101753 31.628468  
2002-12-23 08:24:04 51°16.239 2°54.218 6.813764 3.101227 31.62335  
2002-12-23 08:24:08 51°16.239 2°54.218 6.695336 3.101753 31.629287  
2002-12-23 08:24:14 51°16.238 2°54.217 6.448648 3.100595 31.616225  
2002-12-23 08:24:18 51°16.238 2°54.217 6.411267 3.100595 31.615406  
2002-12-23 08:24:23 51°16.238 2°54.217 6.411267 3.100595 31.615406  
2002-12-23 08:24:28 51°16.237 2°54.218 6.658791 3.100385 31.61385  
2002-12-23 08:24:34 51°16.237 2°54.218 6.372375 3.100279 31.612662  
2002-12-23 08:24:38 51°16.237 2°54.218 6.616047 3.100701 31.618231  
2002-12-23 08:24:43 51°16.237 2°54.218 6.287962 3.100069 31.611106  
2002-12-23 08:24:48 51°16.237 2°54.218 6.41092 3.099964 31.609919  
2002-12-23 08:24:54 51°16.236 2°54.218 6.41092 3.099964 31.609919  
2002-12-23 08:24:58 51°16.236 2°54.218 6.89955 3.099648 31.605538  
2002-12-23 08:25:02 51°16.236 2°54.217 6.125672 3.099648 31.605538  
2002-12-23 08:25:08 51°16.236 2°54.219 6.447805 3.099121 31.598783  
2002-12-23 08:25:14 51°16.237 2°54.222 6.118149 3.099121 31.599601  
2002-12-23 08:25:18 51°16.238 2°54.225 6.279862 3.099227 31.601607  
2002-12-23 08:25:23 51°16.24 2°54.229 6.279862 3.099227 31.601607  
2002-12-23 08:25:28 51°16.243 2°54.233 6.118498 3.099121 31.599601  
2002-12-23 08:25:33 51°16.247 2°54.236 5.957721 3.098911 31.597226  
2002-12-23 08:25:38 51°16.252 2°54.239 6.12084 3.099332 31.601976  
2002-12-23 08:25:43 51°16.258 2°54.241 6.204033 3.09849 31.594931  
2002-12-23 08:25:49 51°16.265 2°54.241 6.327451 3.097332 31.585142  
2002-12-23 08:25:54 51°16.272 2°54.239 6.327451 3.097332 31.585142  
2002-12-23 08:25:58 51°16.278 2°54.237 6.000811 3.098385 31.597835  
2002-12-23 08:26:04 51°16.286 2°54.231 6.8548 3.098279 31.596648  
2002-12-23 08:26:08 51°16.292 2°54.226 5.91765 3.097437 31.587147  
2002-12-23 08:26:14 51°16.301 2°54.216 7.234445 3.095963 31.570523  
2002-12-23 08:26:18 51°16.306 2°54.207 5.299893 3.096805 31.58084  
2002-12-23 08:26:24 51°16.314 2°54.191 5.299893 3.096805 31.58084  
2002-12-23 08:26:28 51°16.319 2°54.179 5.260009 3.0967 31.580471  
2002-12-23 08:26:34 51°16.326 2°54.158 5.261574 3.096384 31.576908  
2002-12-23 08:26:38 51°16.331 2°54.143 5.26112 3.097753 31.591528  
2002-12-23 08:26:44 51°16.338 2°54.119 5.301912 3.097858 31.592716  
2002-12-23 08:26:48 51°16.345 2°54.103 5.261271 3.097858 31.592716  
2002-12-23 08:26:54 51°16.355 2°54.077 5.261271 3.097858 31.592716  
2002-12-23 08:26:58 51°16.362 2°54.061 5.30494 3.098174 31.593005  
2002-12-23 08:27:04 51°16.373 2°54.033 5.309381 3.099016 31.60005  
2002-12-23 08:27:08 51°16.38 2°54.015 5.269149 3.099858 31.607913  
2002-12-23 08:27:14 51°16.392 2°53.986 5.271573 3.10049 31.612582  
2002-12-23 08:27:18 51°16.4 2°53.967 5.275713 3.10049 31.611763  
2002-12-23 08:27:23 51°16.41 2°53.943 5.275713 3.10049 31.611763  
2002-12-23 08:27:28 51°16.42 2°53.919 5.274249 3.100806 31.615325  
2002-12-23 08:27:34 51°16.433 2°53.891 5.322399 3.102069 31.629574  
2002-12-23 08:27:38 51°16.442 2°53.873 5.284195 3.102806 31.635428  
2002-12-23 08:27:42 51°16.451 2°53.854 5.374647 3.104596 31.652337  
2002-12-23 08:27:48 51°16.464 2°53.827 5.295351 3.104806 31.653073  
2002-12-23 08:27:53 51°16.476 2°53.805 5.295351 3.104806 31.653073  
2002-12-23 08:27:58 51°16.488 2°53.783 5.341871 3.105964 31.662855  
2002-12-23 08:28:04 51°16.503 2°53.757 5.349638 3.107333 31.67665  
2002-12-23 08:28:08 51°16.513 2°53.74 5.351353 3.109123 31.692733  
2002-12-23 08:28:14 51°16.528 2°53.715 5.358312 3.110386 31.704519  
2002-12-23 08:28:18 51°16.538 2°53.698 5.403425 3.111649 31.714663  
2002-12-23 08:28:23 51°16.551 2°53.676 5.403425 3.111649 31.714663  
2002-12-23 08:28:28 51°16.563 2°53.656 5.322298 3.112597 31.720423  
2002-12-23 08:28:34 51°16.578 2°53.631 5.319423 3.11386 31.729743  
2002-12-23 08:28:38 51°16.589 2°53.614 5.323005 3.115545 31.743807  
2002-12-23 08:28:43 51°16.602 2°53.593 5.317303 3.11744 31.760243  
2002-12-23 08:28:48 51°16.614 2°53.572 5.358866 3.118071 31.764078  
2002-12-23 08:28:54 51°16.629 2°53.547 5.358866 3.118071 31.764078  
2002-12-23 08:28:58 51°16.639 2°53.531 5.317808 3.11965 31.777771  
2002-12-23 08:29:03 51°16.652 2°53.51 5.406348 3.121546 31.79913  
2002-12-23 08:29:08 51°16.665 2°53.489 5.410177 3.121861 31.801868  
2002-12-23 08:29:14 51°16.68 2°53.464 5.332994 3.122598 31.810997  
2002-12-23 08:29:18 51°16.69 2°53.448 5.33713 3.122598 31.811819  
2002-12-23 08:29:22 51°16.7 2°53.432 5.33713 3.122598 31.811819  
2002-12-23 08:29:28 51°16.716 2°53.407 5.378831 3.121967 31.803877  
2002-12-23 08:29:32 51°16.726 2°53.39 5.33945 3.12323 31.818118  
2002-12-23 08:29:38 51°16.741 2°53.366 5.348478 3.125336 31.839385  
2002-12-23 08:29:44 51°16.756 2°53.341 5.353521 3.126704 31.850698  
2002-12-23 08:29:48 51°16.766 2°53.325 5.357202 3.128494 31.867579  
2002-12-23 08:29:54 51°16.781 2°53.3 5.357202 3.128494 31.867579  
2002-12-23 08:29:58 51°16.791 2°53.284 5.365018 3.129863 31.879712  
2002-12-23 08:30:04 51°16.806 2°53.259 5.364967 3.132179 31.902523  
2002-12-23 08:30:08 51°16.816 2°53.243 5.367034 3.134074 31.919761  
2002-12-23 08:30:14 51°16.831 2°53.218 5.411688 3.135022 31.926318  
2002-12-23 08:30:18 51°16.841 2°53.201 5.376563 3.136811 31.943189  
2002-12-23 08:30:23 51°16.853 2°53.181 5.376563 3.136811 31.943189  
2002-12-23 08:30:28 51°16.865 2°53.16 5.373437 3.139022 31.96398  
2002-12-23 08:30:34 51°16.88 2°53.136 5.425894 3.140496 31.973987  
2002-12-23 08:30:38 51°16.889 2°53.121 5.441708 3.142286 31.99333  
2002-12-23 08:30:43 51°16.901 2°53.102 5.415517 3.143655 32.005449  
2002-12-23 08:30:48 51°16.912 2°53.083 5.422469 3.145129 32.018752  
2002-12-23 08:30:54 51°16.926 2°53.06 5.422469 3.145129 32.018752  
2002-12-23 08:30:58 51°16.935 2°53.044 5.468392 3.147445 32.043199  
2002-12-23 08:31:02 51°16.944 2°53.028 5.470154 3.150077 32.067895  
2002-12-23 08:31:08 51°16.958 2°53.004 5.4336 3.152499 32.088559  
2002-12-23 08:31:14 51°16.972 2°52.98 5.475841 3.157447 32.135201  
2002-12-23 08:31:18 51°16.981 2°52.964 5.441708 3.162712 32.183729  
2002-12-23 08:31:23 51°16.992 2°52.943 5.441708 3.162712 32.183729  
2002-12-23 08:31:28 51°17.003 2°52.922 5.479264 3.165765 32.211485  
2002-12-23 08:31:34 51°17.017 2°52.896 5.446794 3.169766 32.249909  
2002-12-23 08:31:38 51°17.026 2°52.879 5.44614 3.171661 32.267101  
2002-12-23 08:31:43 51°17.038 2°52.858 5.44906 3.173451 32.281441  
2002-12-23 08:31:48 51°17.051 2°52.838 5.455303 3.174609 32.291991  
2002-12-23 08:31:53 51°17.064 2°52.818 5.455303 3.174609 32.291991  
2002-12-23 08:31:58 51°17.077 2°52.799 5.504875 3.175452 32.299814  
2002-12-23 08:32:03 51°17.091 2°52.779 5.46512 3.177347 32.316998  
2002-12-23 08:32:08 51°17.105 2°52.761 5.466077 3.1784 32.326358  
2002-12-23 08:32:14 51°17.122 2°52.739 5.513578 3.178926 32.329789  
2002-12-23 08:32:18 51°17.133 2°52.724 5.477553 3.180506 32.34591  
2002-12-23 08:32:24 51°17.149 2°52.702 5.477553 3.180506 32.34591  
2002-12-23 08:32:28 51°17.16 2°52.687 5.555313 3.181032 32.347674  
2002-12-23 08:32:34 51°17.176 2°52.665 5.479364 3.182296 32.356903  
2002-12-23 08:32:38 51°17.186 2°52.65 5.479163 3.182927 32.359018  
2002-12-23 08:32:44 51°17.202 2°52.628 5.479163 3.183138 32.357225  
2002-12-23 08:32:48 51°17.213 2°52.613 5.484045 3.183559 32.359467  
2002-12-23 08:32:52 51°17.223 2°52.598 5.484045 3.183559 32.359467  
2002-12-23 08:32:58 51°17.239 2°52.575 5.486158 3.184296 32.366098  
2002-12-23 08:33:03 51°17.252 2°52.556 5.497278 3.185454 32.376635  
2002-12-23 08:33:08 51°17.265 2°52.537 5.494612 3.185454 32.374969  
2002-12-23 08:33:14 51°17.281 2°52.514 5.504875 3.185454 32.375802  
2002-12-23 08:33:22 51°17.302 2°52.483 5.514684 3.185454 32.373303  
2002-12-23 08:33:27 51°17.315 2°52.464 5.52243 3.185665 32.372342  
2002-12-23 08:33:32 51°17.328 2°52.445 5.577125 3.186296 32.375287  
2002-12-23 08:33:38 51°17.344 2°52.421 5.539578 3.187349 32.382138  
2002-12-23 08:33:42 51°17.354 2°52.405 5.579838 3.188086 32.386266  
2002-12-23 08:33:46 51°17.364 2°52.388 5.579838 3.188086 32.386266  
2002-12-23 08:33:52 51°17.379 2°52.364 5.54541 3.189139 32.391449  
2002-12-23 08:33:58 51°17.394 2°52.34 5.548376 3.190929 32.405752  
2002-12-23 08:34:02 51°17.404 2°52.323 5.565416 3.192298 32.412817  
2002-12-23 08:34:07 51°17.417 2°52.303 5.575015 3.194299 32.428648  
2002-12-23 08:34:12 51°17.429 2°52.283 5.584763 3.195878 32.440573  
2002-12-23 08:34:18 51°17.444 2°52.258 5.584763 3.195878 32.440573  
2002-12-23 08:34:22 51°17.454 2°52.242 5.591445 3.196299 32.440309  
2002-12-23 08:34:26 51°17.465 2°52.226 5.604706 3.197563 32.450346  
2002-12-23 08:34:32 51°17.48 2°52.203 5.65948 3.198931 32.459897  
2002-12-23 08:34:37 51°17.492 2°52.182 5.62871 3.2003 32.46528  
2002-12-23 08:34:42 51°17.505 2°52.162 5.684618 3.202511 32.481791  
2002-12-23 08:34:47 51°17.517 2°52.143 5.684618 3.202511 32.481791  
2002-12-23 08:34:52 51°17.53 2°52.122 5.705181 3.204196 32.490715  
2002-12-23 08:34:58 51°17.545 2°52.099 5.679551 3.205354 32.494557  
2002-12-23 08:35:02 51°17.555 2°52.083 5.692292 3.206723 32.500761  
2002-12-23 08:35:06 51°17.565 2°52.067 5.700919 3.209461 32.522328  
2002-12-23 08:35:12 51°17.58 2°52.043 5.707689 3.211882 32.537008  
2002-12-23 08:35:17 51°17.593 2°52.023 5.707689 3.211882 32.537008  
2002-12-23 08:35:22 51°17.606 2°52.003 5.757063 3.214094 32.545984  
2002-12-23 08:35:27 51°17.618 2°51.984 5.762173 3.216621 32.560163  
2002-12-23 08:35:33 51°17.634 2°51.96 5.768837 3.219674 32.582736  
2002-12-23 08:35:36 51°17.641 2°51.948 5.767885 3.221464 32.588634  
2002-12-23 08:35:43 51°17.659 2°51.92 5.73401 3.22357 32.601402  
2002-12-23 08:35:47 51°17.668 2°51.905 5.73401 3.22357 32.601402  
2002-12-23 08:35:53 51°17.683 2°51.881 5.784315 3.224939 32.608406  
2002-12-23 08:35:58 51°17.696 2°51.861 5.740676 3.226308 32.615408  
2002-12-23 08:36:03 51°17.708 2°51.841 5.747041 3.226624 32.614781  
2002-12-23 08:36:07 51°17.718 2°51.825 5.796084 3.228203 32.62747  
2002-12-23 08:36:12 51°17.731 2°51.805 5.753054 3.229467 32.635787  
2002-12-23 08:36:16 51°17.741 2°51.789 5.753054 3.229467 32.635787  
2002-12-23 08:36:22 51°17.756 2°51.766 5.759217 3.23052 32.64341  
2002-12-23 08:36:27 51°17.769 2°51.747 5.842036 3.231151 32.64465  
2002-12-23 08:36:32 51°17.781 2°51.728 5.765079 3.232415 32.654629  
2002-12-23 08:36:38 51°17.797 2°51.705 5.806899 3.233047 32.658367  
2002-12-23 08:36:43 51°17.809 2°51.685 5.812056 3.233468 32.659748  
2002-12-23 08:36:47 51°17.82 2°51.669 5.812056 3.233468 32.659748  
2002-12-23 08:36:53 51°17.835 2°51.646 5.771492 3.234626 32.670211  
2002-12-23 08:36:58 51°17.847 2°51.626 5.773095 3.235048 32.671591  
2002-12-23 08:37:02 51°17.857 2°51.61 5.782462 3.235785 32.676506  
2002-12-23 08:37:07 51°17.87 2°51.59 5.783764 3.236627 32.683431  
2002-12-23 08:37:12 51°17.883 2°51.57 5.784766 3.237575 32.689033  
2002-12-23 08:37:18 51°17.898 2°51.547 5.784766 3.237575 32.689033  
2002-12-23 08:37:22 51°17.909 2°51.531 5.825171 3.237575 32.687366  
2002-12-23 08:37:27 51°17.922 2°51.512 5.789073 3.238522 32.694634  
2002-12-23 08:37:32 51°17.935 2°51.493 5.791777 3.238944 32.695178  
2002-12-23 08:37:38 51°17.951 2°51.471 5.796835 3.239049 32.692189  
2002-12-23 08:37:42 51°17.961 2°51.456 5.842637 3.239049 32.689689  
2002-12-23 08:37:46 51°17.972 2°51.441 5.842637 3.239049 32.689689  
2002-12-23 08:37:53 51°17.991 2°51.415 5.805147 3.239786 32.696266  
2002-12-23 08:37:58 51°18.004 2°51.396 5.810003 3.240523 32.701176  
2002-12-23 08:38:02 51°18.015 2°51.382 5.811505 3.240628 32.700687  
2002-12-23 08:38:08 51°18.031 2°51.36 5.812456 3.241892 32.710649  
2002-12-23 08:38:12 51°18.042 2°51.346 5.856446 3.241681 32.705795  
2002-12-23 08:38:18 51°18.059 2°51.324 5.856446 3.241681 32.705795  
2002-12-23 08:38:22 51°18.07 2°51.309 5.819114 3.242208 32.708348  
2002-12-23 08:38:27 51°18.083 2°51.291 5.817062 3.242734 32.710901  
2002-12-23 08:38:32 51°18.097 2°51.272 5.819865 3.242734 32.707569  
2002-12-23 08:38:38 51°18.113 2°51.25 5.820416 3.24305 32.706102  
2002-12-23 08:38:43 51°18.126 2°51.231 5.826172 3.243471 32.710809  
2002-12-23 08:38:47 51°18.137 2°51.216 5.826172 3.243471 32.710809  
2002-12-23 08:38:52 51°18.15 2°51.197 5.821317 3.243787 32.711008  
2002-12-23 08:38:58 51°18.166 2°51.175 5.827123 3.243471 32.705812  
2002-12-23 08:39:02 51°18.177 2°51.16 5.823619 3.243893 32.708853  
2002-12-23 08:39:06 51°18.188 2°51.145 5.828124 3.243893 32.708853  
2002-12-23 08:39:13 51°18.207 2°51.121 5.870602 3.243577 32.702826  
2002-12-23 08:39:18 51°18.22 2°51.105 5.870602 3.243577 32.702826  
2002-12-23 08:39:22 51°18.229 2°51.093 5.826122 3.243787 32.703514  
2002-12-23 08:39:27 51°18.241 2°51.079 5.828825 3.243682 32.700673  
2002-12-23 08:39:33 51°18.255 2°51.063 5.833029 3.243577 32.697832  
2002-12-23 08:39:36 51°18.261 2°51.056 5.829826 3.243577 32.696999  
2002-12-23 08:39:43 51°18.276 2°51.041 5.870752 3.243682 32.697343  
2002-12-23 08:39:47 51°18.284 2°51.033 5.870752 3.243682 32.697343  
2002-12-23 08:39:52 51°18.294 2°51.024 5.833429 3.243682 32.695679  
2002-12-23 08:39:58 51°18.305 2°51.014 5.831127 3.243576 32.693671  
2002-12-23 08:40:02 51°18.313 2°51.009 5.831727 3.243576 32.692839  
2002-12-23 08:40:07 51°18.322 2°51.003 5.828825 3.243576 32.692007  
2002-12-23 08:40:12 51°18.331 2°50.998 5.827223 3.243892 32.695535  
2002-12-23 08:40:17 51°18.34 2°50.994 5.827223 3.243892 32.695535  
2002-12-23 08:40:22 51°18.349 2°50.991 5.914152 3.243787 32.694359  
2002-12-23 08:40:27 51°18.357 2°50.989 5.870402 3.243682 32.693183  
2002-12-23 08:40:32 51°18.365 2°50.987 5.869502 3.243576 32.690343  
2002-12-23 08:40:38 51°18.374 2°50.985 5.870552 3.243576 32.689511  
2002-12-23 08:40:42 51°18.381 2°50.984 5.829625 3.243787 32.693527  
2002-12-23 08:40:46 51°18.387 2°50.983 5.829625 3.243787 32.693527  
2002-12-23 08:40:53 51°18.397 2°50.981 5.836932 3.243998 32.695048  
2002-12-23 08:40:58 51°18.405 2°50.98 5.829475 3.244208 32.6974  
2002-12-23 08:41:02 51°18.411 2°50.979 5.870502 3.244314 32.698576  
2002-12-23 08:41:07 51°18.418 2°50.977 5.871853 3.244103 32.69872  
2002-12-23 08:41:13 51°18.426 2°50.974 5.829075 3.244103 32.697888  
2002-12-23 08:41:18 51°18.433 2°50.973 5.829075 3.244103 32.697888  
2002-12-23 08:41:22 51°18.438 2°50.971 5.832528 3.243787 32.694359  
2002-12-23 08:41:27 51°18.444 2°50.969 5.826873 3.244103 32.697056  
2002-12-23 08:41:32 51°18.449 2°50.967 5.868051 3.244208 32.698232  
2002-12-23 08:41:37 51°18.454 2°50.966 5.86455 3.243998 32.697544  
2002-12-23 08:41:43 51°18.46 2°50.964 5.867401 3.243892 32.696367  
2002-12-23 08:41:47 51°18.463 2°50.963 5.867401 3.243892 32.696367  
2002-12-23 08:41:53 51°18.467 2°50.962 5.825171 3.243682 32.694015  
2002-12-23 08:41:58 51°18.47 2°50.961 5.826122 3.243576 32.692839  
2002-12-23 08:42:02 51°18.471 2°50.96 5.825822 3.243366 32.690487  
2002-12-23 08:42:08 51°18.473 2°50.959 5.829625 3.243471 32.693327  
2002-12-23 08:42:12 51°18.474 2°50.959 5.829325 3.243155 32.689798  
2002-12-23 08:42:18 51°18.475 2°50.958 5.829325 3.243155 32.689798  
2002-12-23 08:42:22 51°18.476 2°50.958 5.827523 3.242734 32.685925  
2002-12-23 08:42:27 51°18.477 2°50.958 5.828174 3.242523 32.681909  
2002-12-23 08:42:32 51°18.478 2°50.958 5.827673 3.242629 32.683085  
2002-12-23 08:42:38 51°18.479 2°50.958 5.830076 3.242418 32.679901  
2002-12-23 08:42:43 51°18.48 2°50.958 5.828825 3.242313 32.677894  
2002-12-23 08:42:47 51°18.48 2°50.958 5.828825 3.242313 32.677894  
2002-12-23 08:42:52 51°18.481 2°50.958 5.828725 3.242102 32.675541  
2002-12-23 08:42:58 51°18.482 2°50.958 5.826823 3.242207 32.675886  
2002-12-23 08:43:02 51°18.483 2°50.958 5.867101 3.242102 32.67471  
2002-12-23 08:43:06 51°18.483 2°50.958 5.826072 3.242313 32.677062  
2002-12-23 08:43:13 51°18.484 2°50.958 5.825721 3.242207 32.675886  
2002-12-23 08:43:18 51°18.485 2°50.959 5.825721 3.242207 32.675886  
2002-12-23 08:43:22 51°18.486 2°50.959 5.824871 3.241892 32.673189  
2002-12-23 08:43:27 51°18.486 2°50.96 5.863249 3.241365 32.666478  
2002-12-23 08:43:33 51°18.487 2°50.96 5.822418 3.241365 32.66814  
2002-12-23 08:43:36 51°18.487 2°50.96 5.82457 3.241154 32.66662  
2002-12-23 08:43:43 51°18.488 2°50.961 5.86565 3.240101 32.653197  
2002-12-23 08:43:47 51°18.489 2°50.961 5.86565 3.240101 32.653197  
2002-12-23 08:43:52 51°18.489 2°50.961 5.820766 3.240839 32.661429  
2002-12-23 08:43:58 51°18.49 2°50.962 5.818463 3.240733 32.660253  
2002-12-23 08:44:02 51°18.49 2°50.962 5.861999 3.240944 32.663436  
2002-12-23 08:44:07 51°18.491 2°50.963 5.860298 3.240733 32.662747  
2002-12-23 08:44:13 51°18.492 2°50.964 5.818514 3.240628 32.660739  
2002-12-23 08:44:18 51°18.492 2°50.964 5.818514 3.240628 32.660739  
2002-12-23 08:44:22 51°18.493 2°50.965 5.822868 3.240944 32.665099  
2002-12-23 08:44:27 51°18.493 2°50.965 5.859097 3.240733 32.665241  
2002-12-23 08:44:32 51°18.494 2°50.966 5.862399 3.240839 32.666417  
2002-12-23 08:44:37 51°18.495 2°50.966 5.817913 3.240733 32.666903  
2002-12-23 08:44:42 51°18.495 2°50.967 5.820065 3.240733 32.666903  
2002-12-23 08:44:47 51°18.496 2°50.967 5.820065 3.240733 32.666903  
2002-12-23 08:44:53 51°18.497 2°50.968 5.818463 3.240312 32.662198  
2002-12-23 08:44:57 51°18.497 2°50.968 5.822918 3.240312 32.662198  
2002-12-23 08:45:02 51°18.498 2°50.969 5.818964 3.240101 32.660677  
2002-12-23 08:45:08 51°18.498 2°50.969 5.862099 3.239891 32.657494  
2002-12-23 08:45:12 51°18.499 2°50.97 5.816661 3.239996 32.659501  
2002-12-23 08:45:18 51°18.5 2°50.971 5.816661 3.239996 32.659501  
2002-12-23 08:45:22 51°18.5 2°50.971 5.816361 3.240417 32.664206  
2002-12-23 08:45:28 51°18.501 2°50.972 5.858447 3.239891 32.658325  
2002-12-23 08:45:32 51°18.502 2°50.973 5.817462 3.239996 32.660333  
2002-12-23 08:45:37 51°18.502 2°50.973 5.899255 3.240207 32.661022  
2002-12-23 08:45:42 51°18.503 2°50.974 5.813858 3.240101 32.66234  
2002-12-23 08:45:48 51°18.504 2°50.974 5.813858 3.240101 32.66234  
2002-12-23 08:45:52 51°18.504 2°50.975 5.813157 3.240417 32.665038  
2002-12-23 08:45:58 51°18.505 2°50.976 5.812857 3.240628 32.66739  
2002-12-23 08:46:02 51°18.506 2°50.976 5.816311 3.240628 32.66739  
2002-12-23 08:46:08 51°18.507 2°50.977 5.816912 3.240101 32.660677  
2002-12-23 08:46:12 51°18.507 2°50.977 5.818113 3.240207 32.663516  
2002-12-23 08:46:18 51°18.507 2°50.977 5.818113 3.240207 32.663516  
2002-12-23 08:46:22 51°18.507 2°50.977 5.816161 3.240207 32.664348  
2002-12-23 08:46:27 51°18.507 2°50.976 5.813658 3.239891 32.66165  
2002-12-23 08:46:32 51°18.507 2°50.976 5.812156 3.240102 32.664835  
2002-12-23 08:46:38 51°18.508 2°50.976 5.814008 3.240312 32.668019  
2002-12-23 08:46:42 51°18.508 2°50.976 5.813658 3.239786 32.662969  
2002-12-23 08:46:47 51°18.508 2°50.976 5.813658 3.239786 32.662969  
2002-12-23 08:46:53 51°18.508 2°50.975 5.814609 3.240207 32.665179  
2002-12-23 08:46:58 51°18.508 2°50.975 5.816061 3.239996 32.662827  
2002-12-23 08:47:02 51°18.508 2°50.974 5.813558 3.239891 32.662482  
2002-12-23 08:47:06 51°18.508 2°50.974 5.811004 3.239575 32.658953  
2002-12-23 08:47:13 51°18.508 2°50.974 5.814208 3.239259 32.657087  
2002-12-23 08:47:17 51°18.508 2°50.973 5.814208 3.239259 32.657087  
2002-12-23 08:47:22 51°18.507 2°50.973 5.812957 3.239154 32.654247  
2002-12-23 08:47:28 51°18.507 2°50.972 5.856046 3.239048 32.653902  
2002-12-23 08:47:32 51°18.507 2°50.972 5.817663 3.239364 32.657431  
2002-12-23 08:47:38 51°18.507 2°50.971 5.813157 3.239364 32.657431  
2002-12-23 08:47:42 51°18.507 2°50.97 5.809653 3.23947 32.660271  
2002-12-23 08:47:47 51°18.507 2°50.97 5.809653 3.23947 32.660271  
2002-12-23 08:47:53 51°18.506 2°50.969 5.811355 3.239154 32.656742  
2002-12-23 08:47:58 51°18.506 2°50.969 5.812506 3.238943 32.652726  
2002-12-23 08:48:02 51°18.506 2°50.968 5.851443 3.238627 32.649197  
2002-12-23 08:48:06 51°18.506 2°50.968 5.813708 3.238943 32.652726  
2002-12-23 08:48:13 51°18.506 2°50.967 5.811505 3.238943 32.652726  
2002-12-23 08:48:17 51°18.505 2°50.966 5.811505 3.238943 32.652726  
2002-12-23 08:48:22 51°18.505 2°50.966 5.893406 3.238627 32.65086  
2002-12-23 08:48:27 51°18.505 2°50.965 5.810003 3.238733 32.650373  
2002-12-23 08:48:32 51°18.504 2°50.964 5.849342 3.238522 32.648852  
2002-12-23 08:48:36 51°18.504 2°50.964 5.855495 3.238522 32.649683  
2002-12-23 08:48:42 51°18.504 2°50.963 5.894156 3.238417 32.649338  
2002-12-23 08:48:48 51°18.503 2°50.962 5.894156 3.238417 32.649338  
2002-12-23 08:48:52 51°18.503 2°50.961 5.813908 3.238417 32.647676  
2002-12-23 08:48:58 51°18.502 2°50.96 5.81561 3.236205 32.623804  
2002-12-23 08:49:02 51°18.502 2°50.959 5.812406 3.237364 32.635913  
2002-12-23 08:49:07 51°18.502 2°50.958 5.812606 3.238417 32.648507  
2002-12-23 08:49:12 51°18.501 2°50.958 5.810654 3.238522 32.649683  
2002-12-23 08:49:17 51°18.501 2°50.957 5.810654 3.238522 32.649683  
2002-12-23 08:49:22 51°18.501 2°50.955 5.812406 3.238417 32.648507  
2002-12-23 08:49:26 51°18.5 2°50.955 5.813708 3.236732 32.628855  
2002-12-23 08:49:33 51°18.499 2°50.954 5.855846 3.238733 32.651205  
2002-12-23 08:49:38 51°18.499 2°50.953 5.810904 3.238101 32.644978  
2002-12-23 08:49:42 51°18.499 2°50.952 5.810704 3.238838 32.652381  
2002-12-23 08:49:46 51°18.498 2°50.952 5.810704 3.238838 32.652381  
2002-12-23 08:49:52 51°18.498 2°50.95 5.811956 3.238733 32.651205  
2002-12-23 08:49:58 51°18.497 2°50.949 5.814359 3.238311 32.645668  
2002-12-23 08:50:02 51°18.497 2°50.949 5.812306 3.238522 32.648021  
2002-12-23 08:50:07 51°18.496 2°50.948 5.814609 3.238417 32.647676  
2002-12-23 08:50:12 51°18.496 2°50.946 5.854345 3.238206 32.645323  
2002-12-23 08:50:18 51°18.495 2°50.945 5.854345 3.238206 32.645323  
2002-12-23 08:50:22 51°18.495 2°50.945 5.814809 3.238838 32.652381  
2002-12-23 08:50:27 51°18.495 2°50.944 5.852394 3.238417 32.648507  
2002-12-23 08:50:32 51°18.494 2°50.943 5.812056 3.238943 32.652726  
2002-12-23 08:50:37 51°18.494 2°50.942 5.810804 3.238838 32.65155  
2002-12-23 08:50:42 51°18.493 2°50.941 5.851993 3.239154 32.65591  
2002-12-23 08:50:48 51°18.493 2°50.939 5.851993 3.239154 32.65591  
2002-12-23 08:50:52 51°18.492 2°50.939 5.808001 3.238838 32.650719  
2002-12-23 08:50:58 51°18.492 2°50.937 5.853944 3.239259 32.656255  
2002-12-23 08:51:02 51°18.491 2°50.936 5.850993 3.239364 32.658263  
2002-12-23 08:51:07 51°18.491 2°50.935 5.812857 3.238101 32.645809  
2002-12-23 08:51:13 51°18.49 2°50.934 5.811255 3.238417 32.647676  
2002-12-23 08:51:18 51°18.49 2°50.933 5.811255 3.238417 32.647676  
2002-12-23 08:51:22 51°18.489 2°50.932 5.809853 3.237785 32.641449  
2002-12-23 08:51:27 51°18.489 2°50.931 5.811956 3.238627 32.65086  
2002-12-23 08:51:32 51°18.488 2°50.93 5.810704 3.238733 32.652867  
2002-12-23 08:51:37 51°18.488 2°50.929 5.851593 3.238417 32.647676  
2002-12-23 08:51:42 51°18.487 2°50.928 5.812857 3.238101 32.644147  
2002-12-23 08:51:47 51°18.487 2°50.927 5.812857 3.238101 32.644147  
2002-12-23 08:51:52 51°18.486 2°50.925 5.810904 3.23768 32.640272  
2002-12-23 08:51:58 51°18.486 2°50.924 5.808251 3.23789 32.641794  
2002-12-23 08:52:02 51°18.485 2°50.923 5.809653 3.238206 32.646154  
2002-12-23 08:52:08 51°18.484 2°50.922 5.850793 3.238101 32.644147  
2002-12-23 08:52:12 51°18.484 2°50.921 5.811055 3.23768 32.640272  
2002-12-23 08:52:16 51°18.483 2°50.92 5.811055 3.23768 32.640272  
2002-12-23 08:52:22 51°18.483 2°50.919 5.814609 3.23789 32.641794  
2002-12-23 08:52:27 51°18.482 2°50.918 5.853094 3.238522 32.648852  
2002-12-23 08:52:32 51°18.481 2°50.917 5.808952 3.23768 32.639441  
2002-12-23 08:52:38 51°18.48 2°50.915 5.850242 3.238417 32.647676  
2002-12-23 08:52:43 51°18.48 2°50.914 5.810103 3.238627 32.650028  
2002-12-23 08:52:47 51°18.479 2°50.913 5.810103 3.238627 32.650028  
2002-12-23 08:52:53 51°18.478 2°50.912 5.809402 3.238206 32.644492  
2002-12-23 08:52:57 51°18.478 2°50.91 5.808752 3.238522 32.648021  
2002-12-23 08:53:02 51°18.477 2°50.909 5.809402 3.238838 32.65155  
2002-12-23 08:53:06 51°18.476 2°50.908 5.80755 3.238101 32.644147  
2002-12-23 08:53:12 51°18.475 2°50.907 5.808852 3.238627 32.650028  
2002-12-23 08:53:18 51°18.475 2°50.905 5.808852 3.238627 32.650028  
2002-12-23 08:53:23 51°18.474 2°50.904 5.809052 3.237995 32.643801  
2002-12-23 08:53:27 51°18.473 2°50.903 5.8079 3.238522 32.650514  
2002-12-23 08:53:32 51°18.473 2°50.901 5.807149 3.23768 32.640272  
2002-12-23 08:53:38 51°18.472 2°50.9 5.806749 3.237785 32.641449  
2002-12-23 08:53:42 51°18.471 2°50.899 5.806448 3.238206 32.646985  
2002-12-23 08:53:48 51°18.47 2°50.897 5.806448 3.238206 32.646985  
2002-12-23 08:53:52 51°18.47 2°50.896 5.808852 3.238206 32.646154  
2002-12-23 08:53:57 51°18.469 2°50.895 5.805047 3.237574 32.639096  
2002-12-23 08:54:02 51°18.468 2°50.894 5.84639 3.237364 32.637574  
2002-12-23 08:54:07 51°18.468 2°50.892 5.805898 3.237995 32.64297  
2002-12-23 08:54:12 51°18.467 2°50.891 5.809853 3.237574 32.639096  
2002-12-23 08:54:18 51°18.466 2°50.89 5.809853 3.237574 32.639096  
2002-12-23 08:54:22 51°18.466 2°50.889 5.806749 3.237048 32.634876  
2002-12-23 08:54:27 51°18.465 2°50.888 5.8075 3.236837 32.634185  
2002-12-23 08:54:32 51°18.465 2°50.887 5.80785 3.236311 32.628303  
2002-12-23 08:54:38 51°18.464 2°50.886 5.889756 3.237258 32.639722  
2002-12-23 08:54:43 51°18.464 2°50.884 5.806649 3.237048 32.636538  
2002-12-23 08:54:47 51°18.463 2°50.883 5.806649 3.237048 32.636538  
2002-12-23 08:54:52 51°18.463 2°50.882 5.80745 3.236626 32.631832  
2002-12-23 08:54:58 51°18.462 2°50.881 5.8075 3.236205 32.626296  
2002-12-23 08:55:03 51°18.461 2°50.88 5.8076 3.236416 32.627818  
2002-12-23 08:55:06 51°18.461 2°50.879 5.810203 3.236837 32.632524  
2002-12-23 08:55:13 51°18.46 2°50.878 5.806899 3.237153 32.637715  
2002-12-23 08:55:18 51°18.459 2°50.877 5.806899 3.237153 32.637715  
2002-12-23 08:55:22 51°18.459 2°50.876 5.8079 3.237048 32.634876  
2002-12-23 08:55:28 51°18.458 2°50.875 5.811405 3.236942 32.632869  
2002-12-23 08:55:32 51°18.458 2°50.874 5.808051 3.236626 32.630171  
2002-12-23 08:55:37 51°18.457 2°50.873 5.84664 3.236732 32.630516  
2002-12-23 08:55:42 51°18.456 2°50.872 5.808051 3.237258 32.636398  
2002-12-23 08:55:47 51°18.456 2°50.871 5.808051 3.237258 32.636398  
2002-12-23 08:55:53 51°18.456 2°50.87 5.807149 3.237153 32.635222  
2002-12-23 08:55:57 51°18.455 2°50.869 5.805547 3.236205 32.623804  
2002-12-23 08:56:02 51°18.455 2°50.868 5.805898 3.236416 32.626988  
2002-12-23 08:56:07 51°18.454 2°50.868 5.806649 3.237153 32.636053  
2002-12-23 08:56:13 51°18.453 2°50.866 5.805848 3.236732 32.631347  
2002-12-23 08:56:17 51°18.453 2°50.865 5.805848 3.236732 32.631347  
2002-12-23 08:56:22 51°18.452 2°50.865 5.808501 3.236521 32.628995  
2002-12-23 08:56:28 51°18.451 2°50.864 5.848241 3.236942 32.634531  
2002-12-23 08:56:32 51°18.451 2°50.863 5.84704 3.236942 32.635362  
2002-12-23 08:56:36 51°18.45 2°50.862 5.806749 3.237258 32.638891  
2002-12-23 08:56:42 51°18.45 2°50.861 5.848041 3.236942 32.634531  
2002-12-23 08:56:48 51°18.449 2°50.86 5.848041 3.236942 32.634531  
2002-12-23 08:56:52 51°18.448 2°50.86 5.810003 3.23789 32.645118  
2002-12-23 08:56:58 51°18.448 2°50.859 5.805497 3.237153 32.637715  
2002-12-23 08:57:02 51°18.447 2°50.858 5.809102 3.237469 32.640413  
2002-12-23 08:57:08 51°18.446 2°50.858 5.806799 3.237048 32.635707  
2002-12-23 08:57:13 51°18.446 2°50.857 5.810103 3.236942 32.6337  
2002-12-23 08:57:18 51°18.445 2°50.856 5.810103 3.236942 32.6337  
2002-12-23 08:57:22 51°18.444 2°50.855 5.808952 3.23768 32.642766  
2002-12-23 08:57:27 51°18.444 2°50.855 5.8073 3.237469 32.641244  
2002-12-23 08:57:33 51°18.443 2°50.854 5.806749 3.237364 32.639236  
2002-12-23 08:57:38 51°18.442 2°50.853 5.806398 3.237785 32.643111  
2002-12-23 08:57:42 51°18.442 2°50.853 5.80735 3.23768 32.641934  
2002-12-23 08:57:47 51°18.441 2°50.852 5.80735 3.23768 32.641934  
2002-12-23 08:57:52 51°18.44 2°50.851 5.847941 3.237574 32.641589  
2002-12-23 08:57:58 51°18.439 2°50.851 5.806599 3.237995 32.645464  
2002-12-23 08:58:03 51°18.439 2°50.85 5.80765 3.237995 32.646295  
2002-12-23 08:58:07 51°18.438 2°50.85 5.80765 3.236942 32.634531  
2002-12-23 08:58:12 51°18.437 2°50.849 5.84719 3.236732 32.63384  
2002-12-23 08:58:17 51°18.437 2°50.848 5.84719 3.236732 32.63384  
2002-12-23 08:58:22 51°18.436 2°50.847 5.847891 3.236837 32.634185  
2002-12-23 08:58:26 51°18.435 2°50.847 5.804245 3.236837 32.634185  
2002-12-23 08:58:33 51°18.434 2°50.846 5.804997 3.236311 32.627473  
2002-12-23 08:58:37 51°18.433 2°50.846 5.84734 3.236732 32.631347  
2002-12-23 08:58:42 51°18.432 2°50.845 5.80785 3.237364 32.639236  
2002-12-23 08:58:48 51°18.431 2°50.844 5.80785 3.237364 32.639236  
2002-12-23 08:58:52 51°18.431 2°50.844 5.808501 3.237048 32.636538  
2002-12-23 08:58:57 51°18.43 2°50.844 5.850392 3.236732 32.633009  
2002-12-23 08:59:02 51°18.429 2°50.843 5.807149 3.236942 32.636193  
2002-12-23 08:59:06 51°18.429 2°50.843 5.804045 3.237153 32.639377  
2002-12-23 08:59:12 51°18.427 2°50.842 5.806949 3.237469 32.639582  
2002-12-23 08:59:18 51°18.426 2°50.841 5.806949 3.237469 32.639582  
2002-12-23 08:59:22 51°18.426 2°50.841 5.84719 3.237258 32.638891  
2002-12-23 08:59:28 51°18.425 2°50.841 5.805697 3.236942 32.635362  
2002-12-23 08:59:33 51°18.424 2°50.84 5.804496 3.237153 32.637715  
2002-12-23 08:59:37 51°18.423 2°50.84 5.805898 3.237574 32.64242  
2002-12-23 08:59:42 51°18.422 2°50.839 5.804446 3.236521 32.631487  
2002-12-23 08:59:47 51°18.421 2°50.84 5.804446 3.236521 32.631487  
2002-12-23 08:59:52 51°18.421 2°50.844 5.844939 3.236311 32.627473  
2002-12-23 08:59:58 51°18.42 2°50.851 5.804846 3.236942 32.636193  
2002-12-23 09:00:03 51°18.419 2°50.86 5.806048 3.236416 32.630311  
2002-12-23 09:00:07 51°18.417 2°50.868 5.845589 3.236837 32.635016  
2002-12-23 09:00:13 51°18.416 2°50.882 5.801942 3.237048 32.637369  
2002-12-23 09:00:18 51°18.417 2°50.895 5.801942 3.237048 32.637369  
2002-12-23 09:00:22 51°18.418 2°50.908 5.843688 3.236837 32.636678  
2002-12-23 09:00:27 51°18.422 2°50.924 5.8078 3.236311 32.629965  
2002-12-23 09:00:32 51°18.425 2°50.943 5.80735 3.236205 32.626296  
2002-12-23 09:00:36 51°18.429 2°50.958 5.804646 3.236205 32.628789  
2002-12-23 09:00:42 51°18.435 2°50.983 5.803695 3.236627 32.634325  
2002-12-23 09:00:46 51°18.44 2°51 5.803695 3.236627 32.634325  
2002-12-23 09:00:53 51°18.449 2°51.032 5.799639 3.235468 32.622215  
2002-12-23 09:00:57 51°18.454 2°51.051 5.798087 3.235784 32.627406  
2002-12-23 09:01:02 51°18.461 2°51.075 5.797836 3.236311 32.631627  
2002-12-23 09:01:08 51°18.469 2°51.104 5.798888 3.235468 32.622215  
2002-12-23 09:01:12 51°18.474 2°51.123 5.796484 3.236205 32.629619  
2002-12-23 09:01:18 51°18.483 2°51.153 5.796484 3.236205 32.629619  
2002-12-23 09:01:22 51°18.487 2°51.173 5.795182 3.235363 32.621869  
2002-12-23 09:01:28 51°18.495 2°51.203 5.833229 3.235152 32.622009  
2002-12-23 09:01:33 51°18.501 2°51.229 5.794281 3.235047 32.620001  
2002-12-23 09:01:38 51°18.507 2°51.254 5.790074 3.233889 32.60706  
2002-12-23 09:01:43 51°18.513 2°51.28 5.788422 3.23452 32.61578  
2002-12-23 09:01:46 51°18.517 2°51.295 5.788422 3.23452 32.61578  
2002-12-23 09:01:52 51°18.524 2°51.327 5.786969 3.233889 32.608721  
2002-12-23 09:01:58 51°18.53 2°51.358 5.785216 3.232836 32.597786  
2002-12-23 09:02:02 51°18.534 2°51.379 5.783313 3.231993 32.588375  
2002-12-23 09:02:07 51°18.54 2°51.406 5.779657 3.231361 32.583806  
2002-12-23 09:02:12 51°18.545 2°51.432 5.777703 3.230414 32.574877  
2002-12-23 09:02:18 51°18.552 2°51.464 5.777703 3.230414 32.574877  
2002-12-23 09:02:23 51°18.557 2°51.49 5.776752 3.229466 32.566778  
2002-12-23 09:02:26 51°18.56 2°51.506 5.774998 3.229361 32.567261  
2002-12-23 09:02:33 51°18.567 2°51.544 5.77054 3.228624 32.559854  
2002-12-23 09:02:37 51°18.572 2°51.565 5.810504 3.228097 32.55563  
2002-12-23 09:02:42 51°18.577 2°51.591 5.764628 3.226833 32.545657  
2002-12-23 09:02:47 51°18.583 2°51.618 5.764628 3.226833 32.545657  
2002-12-23 09:02:50 51°18.586 2°51.634 5.803545 3.22557 32.534025  
2002-12-23 09:02:58 51°18.594 2°51.677 5.762524 3.224938 32.527794  
2002-12-23 09:03:02 51°18.599 2°51.698 5.759869 3.224306 32.522391  
2002-12-23 09:03:07 51°18.604 2°51.725 5.756512 3.223148 32.511933  
2002-12-23 09:03:12 51°18.609 2°51.751 5.794331 3.222622 32.508535  
2002-12-23 09:03:18 51°18.616 2°51.783 5.794331 3.222622 32.508535  
2002-12-23 09:03:22 51°18.619 2°51.805 5.751451 3.221674 32.50043  
2002-12-23 09:03:26 51°18.624 2°51.827 5.789774 3.221042 32.495854  
2002-12-23 09:03:33 51°18.63 2°51.865 5.746339 3.220094 32.486919  
2002-12-23 09:03:38 51°18.635 2°51.892 5.783413 3.218936 32.474801  
2002-12-23 09:03:42 51°18.639 2°51.914 5.739724 3.218831 32.476108  
2002-12-23 09:03:47 51°18.644 2°51.94 5.739724 3.218831 32.476108  
2002-12-23 09:03:51 51°18.648 2°51.962 5.739373 3.217041 32.457756  
2002-12-23 09:03:58 51°18.656 2°51.999 5.735814 3.216093 32.451302  
2002-12-23 09:04:02 51°18.66 2°52.02 5.736766 3.215251 32.443541  
2002-12-23 09:04:06 51°18.664 2°52.041 5.774848 3.214092 32.432248  
2002-12-23 09:04:13 51°18.671 2°52.079 5.729498 3.213355 32.425663  
2002-12-23 09:04:18 51°18.676 2°52.106 5.729498 3.213355 32.425663  
2002-12-23 09:04:22 51°18.681 2°52.127 5.728145 3.212092 32.415674  
2002-12-23 09:04:28 51°18.686 2°52.16 5.727192 3.21167 32.412619  
2002-12-23 09:04:32 51°18.69 2°52.181 5.723483 3.211249 32.410391  
2002-12-23 09:04:37 51°18.696 2°52.208 5.722079 3.210828 32.406509  
2002-12-23 09:04:43 51°18.702 2°52.24 5.716815 3.210196 32.401099  
2002-12-23 09:04:46 51°18.705 2°52.255 5.716815 3.210196 32.401099  
2002-12-23 09:04:53 51°18.713 2°52.293 5.758315 3.209565 32.398169  
2002-12-23 09:04:57 51°18.718 2°52.314 5.754658 3.208196 32.384517  
2002-12-23 09:05:02 51°18.724 2°52.34 5.709344 3.20788 32.38429  
2002-12-23 09:05:06 51°18.728 2°52.361 5.709594 3.207143 32.376049  
2002-12-23 09:05:10 51°18.732 2°52.382 5.706736 3.206616 32.374293  
2002-12-23 09:05:18 51°18.74 2°52.425 5.706736 3.206616 32.374293  
2002-12-23 09:05:22 51°18.745 2°52.446 5.785266 3.2063 32.37324  
2002-12-23 09:05:28 51°18.752 2°52.478 5.702323 3.204826 32.360058  
2002-12-23 09:05:32 51°18.756 2°52.499 5.698662 3.20451 32.358178  
2002-12-23 09:05:38 51°18.763 2°52.531 5.700718 3.204195 32.356297  
2002-12-23 09:05:42 51°18.767 2°52.553 5.697458 3.203247 32.348176  
2002-12-23 09:05:48 51°18.773 2°52.585 5.697458 3.203247 32.348176  
2002-12-23 09:05:52 51°18.778 2°52.606 5.695703 3.203352 32.352658  
2002-12-23 09:05:58 51°18.784 2°52.638 5.692643 3.202405 32.342884  
2002-12-23 09:06:02 51°18.788 2°52.659 5.692342 3.201352 32.331931  
2002-12-23 09:06:08 51°18.795 2°52.691 5.689082 3.201983 32.341476  
2002-12-23 09:06:10 51°18.796 2°52.702 5.686173 3.201141 32.332053  
2002-12-23 09:06:18 51°18.804 2°52.745 5.686173 3.201141 32.332053  
2002-12-23 09:06:23 51°18.808 2°52.773 5.772143 3.20093 32.333  
2002-12-23 09:06:28 51°18.813 2°52.8 5.685621 3.200825 32.333474  
2002-12-23 09:06:33 51°18.819 2°52.826 5.684718 3.200193 32.328884  
2002-12-23 09:06:38 51°18.824 2°52.853 5.684768 3.199667 32.326297  
2002-12-23 09:06:42 51°18.829 2°52.874 5.683313 3.199667 32.327123  
2002-12-23 09:06:47 51°18.835 2°52.901 5.683313 3.199667 32.327123  
2002-12-23 09:06:52 51°18.84 2°52.927 5.680705 3.199351 32.32524  
2002-12-23 09:06:58 51°18.847 2°52.959 5.680103 3.199246 32.324062  
2002-12-23 09:07:02 51°18.852 2°52.98 5.675086 3.198614 32.318644  
2002-12-23 09:07:08 51°18.859 2°53.012 5.67343 3.198193 32.315582  
2002-12-23 09:07:12 51°18.863 2°53.033 5.670821 3.197772 32.31252  
2002-12-23 09:07:18 51°18.868 2°53.066 5.670821 3.197772 32.31252  
2002-12-23 09:07:22 51°18.872 2°53.088 5.707789 3.197666 32.311342  
2002-12-23 09:07:28 51°18.878 2°53.12 5.665402 3.19735 32.308633  
2002-12-23 09:07:32 51°18.882 2°53.141 5.663545 3.19735 32.309458  
2002-12-23 09:07:38 51°18.888 2°53.173 5.66485 3.19714 32.310405  
2002-12-23 09:07:42 51°18.892 2°53.195 5.661086 3.196298 32.305106  
2002-12-23 09:07:48 51°18.899 2°53.227 5.661086 3.196298 32.305106  
2002-12-23 09:07:53 51°18.904 2°53.254 5.65928 3.196192 32.304753  
2002-12-23 09:07:58 51°18.909 2°53.281 5.656218 3.195561 32.300159  
2002-12-23 09:08:02 51°18.913 2°53.303 5.653207 3.195034 32.296742  
2002-12-23 09:08:08 51°18.919 2°53.335 5.695703 3.194402 32.290496  
2002-12-23 09:08:12 51°18.923 2°53.357 5.651952 3.194718 32.295683  
2002-12-23 09:08:18 51°18.929 2°53.389 5.651952 3.194718 32.295683  
2002-12-23 09:08:22 51°18.933 2°53.41 5.693947 3.194297 32.291794  
2002-12-23 09:08:28 51°18.939 2°53.443 5.693396 3.193771 32.288377  
2002-12-23 09:08:32 51°18.943 2°53.464 5.649091 3.193244 32.284134  
2002-12-23 09:08:38 51°18.95 2°53.497 5.650196 3.192928 32.282248  
2002-12-23 09:08:42 51°18.954 2°53.519 5.649844 3.192612 32.281188  
2002-12-23 09:08:48 51°18.96 2°53.55 5.649844 3.192612 32.281188  
2002-12-23 09:08:52 51°18.964 2°53.572 5.646331 3.192191 32.276472  
2002-12-23 09:08:58 51°18.971 2°53.604 5.647636 3.192191 32.277298  
2002-12-23 09:09:02 51°18.975 2°53.626 5.727293 3.191981 32.275766  
2002-12-23 09:09:08 51°18.982 2°53.658 5.64352 3.191875 32.275412  
2002-12-23 09:09:12 51°18.986 2°53.68 5.643269 3.191559 32.2727  
2002-12-23 09:09:18 51°18.993 2°53.712 5.643269 3.191559 32.2727  
2002-12-23 09:09:22 51°18.997 2°53.733 5.645678 3.191244 32.269163  
2002-12-23 09:09:28 51°19.004 2°53.765 5.684768 3.191349 32.272819  
2002-12-23 09:09:32 51°19.009 2°53.787 5.642817 3.190928 32.268928  
2002-12-23 09:09:38 51°19.016 2°53.819 5.643169 3.190717 32.26657  
2002-12-23 09:09:43 51°19.022 2°53.845 5.683163 3.190822 32.2694  
2002-12-23 09:09:48 51°19.027 2°53.872 5.683163 3.190822 32.2694  
2002-12-23 09:09:53 51°19.033 2°53.898 5.641412 3.190717 32.268221  
2002-12-23 09:09:58 51°19.038 2°53.926 5.639203 3.190612 32.267041  
2002-12-23 09:10:02 51°19.043 2°53.947 5.639705 3.190612 32.267867  
2002-12-23 09:10:08 51°19.05 2°53.979 5.637797 3.191033 32.274236  
2002-12-23 09:10:12 51°19.054 2°54 5.633329 3.190928 32.273056  
2002-12-23 09:10:18 51°19.06 2°54.032 5.633329 3.190928 32.273056  
2002-12-23 09:10:22 51°19.065 2°54.053 5.671323 3.19177 32.282491  
2002-12-23 09:10:28 51°19.072 2°54.085 5.627405 3.192191 32.288035  
2002-12-23 09:10:32 51°19.076 2°54.107 5.619873 3.192823 32.298418  
2002-12-23 09:10:38 51°19.083 2°54.138 5.614248 3.19356 32.305022  
2002-12-23 09:10:43 51°19.088 2°54.164 5.608875 3.193771 32.310688  
2002-12-23 09:10:48 51°19.094 2°54.191 5.608875 3.193771 32.310688  
2002-12-23 09:10:52 51°19.097 2°54.213 5.60566 3.193666 32.311162  
2002-12-23 09:10:58 51°19.104 2°54.245 5.605108 3.193455 32.312111  
2002-12-23 09:11:02 51°19.108 2°54.266 5.600738 3.193139 32.312707  
2002-12-23 09:11:08 51°19.115 2°54.298 5.598779 3.191876 32.302682  
2002-12-23 09:11:12 51°19.12 2°54.319 5.599532 3.191033 32.299031  
2002-12-23 09:11:18 51°19.126 2°54.35 5.599532 3.191033 32.299031  
2002-12-23 09:11:22 51°19.13 2°54.372 5.597925 3.18977 32.288176  
2002-12-23 09:11:28 51°19.136 2°54.404 5.59471 3.188928 32.282867  
2002-12-23 09:11:32 51°19.139 2°54.426 5.595313 3.188085 32.276732  
2002-12-23 09:11:38 51°19.145 2°54.458 5.594609 3.18819 32.277912  
2002-12-23 09:11:43 51°19.15 2°54.485 5.593354 3.187559 32.272483  
2002-12-23 09:11:48 51°19.154 2°54.513 5.593354 3.187559 32.272483  
2002-12-23 09:11:52 51°19.157 2°54.534 5.593454 3.187138 32.270241  
2002-12-23 09:11:58 51°19.163 2°54.567 5.595614 3.186611 32.265992  
2002-12-23 09:12:02 51°19.167 2°54.588 5.593454 3.186085 32.261742  
2002-12-23 09:12:08 51°19.173 2°54.621 5.591746 3.185979 32.261388  
2002-12-23 09:12:13 51°19.177 2°54.648 5.592901 3.185769 32.259027  
2002-12-23 09:12:18 51°19.182 2°54.675 5.592901 3.185769 32.259027  
2002-12-23 09:12:22 51°19.185 2°54.696 5.629915 3.185769 32.261507  
2002-12-23 09:12:28 51°19.191 2°54.729 5.587425 3.185137 32.255249  
2002-12-23 09:12:32 51°19.195 2°54.751 5.585566 3.184821 32.251707  
2002-12-23 09:12:38 51°19.201 2°54.783 5.58622 3.184505 32.248165  
2002-12-23 09:12:42 51°19.205 2°54.804 5.581899 3.1844 32.247811  
2002-12-23 09:12:48 51°19.211 2°54.836 5.581899 3.1844 32.247811  
2002-12-23 09:12:52 51°19.215 2°54.858 5.580542 3.183874 32.242733  
2002-12-23 09:12:58 51°19.222 2°54.89 5.576974 3.183768 32.243205  
2002-12-23 09:13:03 51°19.227 2°54.917 5.576824 3.183452 32.240489  
2002-12-23 09:13:08 51°19.232 2°54.943 5.574311 3.183031 32.238245  
2002-12-23 09:13:13 51°19.237 2°54.97 5.575618 3.18261 32.233522  
2002-12-23 09:13:18 51°19.243 2°54.997 5.575618 3.18261 32.233522  
2002-12-23 09:13:22 51°19.247 2°55.019 5.655516 3.182294 32.232458  
2002-12-23 09:13:28 51°19.254 2°55.05 5.569838 3.181978 32.231394  
2002-12-23 09:13:32 51°19.258 2°55.072 5.572301 3.181347 32.225961  
2002-12-23 09:13:38 51°19.265 2°55.104 5.567828 3.180925 32.222889  
2002-12-23 09:13:42 51°19.269 2°55.125 5.565818 3.18061 32.219346  
2002-12-23 09:13:48 51°19.276 2°55.157 5.565818 3.18061 32.219346  
2002-12-23 09:13:52 51°19.28 2°55.178 5.561948 3.179978 32.213086  
2002-12-23 09:13:58 51°19.286 2°55.21 5.562601 3.179767 32.212376  
2002-12-23 09:14:02 51°19.291 2°55.231 5.563607 3.179346 32.210956  
2002-12-23 09:14:08 51°19.297 2°55.263 5.559636 3.179136 32.210245  
2002-12-23 09:14:13 51°19.303 2°55.29 5.555464 3.178504 32.203984  
2002-12-23 09:14:18 51°19.308 2°55.317 5.555464 3.178504 32.203984  
2002-12-23 09:14:22 51°19.312 2°55.338 5.555112 3.177977 32.19973  
2002-12-23 09:14:28 51°19.318 2°55.371 5.553101 3.177451 32.195475  
2002-12-23 09:14:32 51°19.322 2°55.392 5.553554 3.17724 32.194764  
2002-12-23 09:14:38 51°19.328 2°55.424 5.632074 3.176714 32.190509  
2002-12-23 09:14:42 51°19.332 2°55.446 5.548426 3.176503 32.188972  
2002-12-23 09:14:48 51°19.338 2°55.478 5.548426 3.176503 32.188972  
2002-12-23 09:14:52 51°19.343 2°55.499 5.545661 3.175556 32.179991  
2002-12-23 09:14:58 51°19.349 2°55.531 5.546767 3.175135 32.177743  
2002-12-23 09:15:02 51°19.353 2°55.552 5.528063 3.174608 32.173486  
2002-12-23 09:15:08 51°19.36 2°55.584 5.506938 3.173976 32.168874  
2002-12-23 09:15:12 51°19.364 2°55.605 5.494159 3.173555 32.164148  
2002-12-23 09:15:18 51°19.37 2°55.637 5.494159 3.173555 32.164148  
2002-12-23 09:15:22 51°19.374 2°55.658 5.488725 3.172818 32.159178  
2002-12-23 09:15:28 51°19.38 2°55.69 5.565567 3.172608 32.156815  
2002-12-23 09:15:32 51°19.384 2°55.711 5.482283 3.170081 32.135057  
2002-12-23 09:15:38 51°19.39 2°55.743 5.481428 3.166817 32.102548  
2002-12-23 09:15:43 51°19.396 2°55.77 5.482736 3.161236 32.05639  
2002-12-23 09:15:48 51°19.401 2°55.796 5.482736 3.161236 32.05639  
2002-12-23 09:15:53 51°19.407 2°55.823 5.484095 3.157867 32.030913  
2002-12-23 09:15:58 51°19.412 2°55.849 5.486712 3.154814 32.005679  
2002-12-23 09:16:02 51°19.416 2°55.87 5.485001 3.15334 31.993239  
2002-12-23 09:16:08 51°19.423 2°55.902 5.489329 3.152603 31.990719  
2002-12-23 09:16:12 51°19.428 2°55.923 5.526504 3.152182 31.985989  
2002-12-23 09:16:18 51°19.435 2°55.955 5.526504 3.152182 31.985989  
2002-12-23 09:16:22 51°19.439 2°55.976 5.483894 3.151971 31.984446  
2002-12-23 09:16:28 51°19.447 2°56.007 5.485504 3.151971 31.984446  
2002-12-23 09:16:32 51°19.451 2°56.028 5.479616 3.152287 31.987994  
2002-12-23 09:16:38 51°19.458 2°56.06 5.476798 3.152287 31.987171